sensor_id;sensor_type;location;lat;lon;timestamp;P1;durP1;ratioP1;P2;durP2;ratioP2
45392;SDS011;31129;44.810;10.334;2023-11-21T00:01:26;77.32;;;52.63;;
45392;SDS011;31129;44.810;10.334;2023-11-21T00:03:52;73.45;;;50.58;;
45392;SDS011;31129;44.810;10.334;2023-11-21T00:08:45;68.40;;;50.63;;
45392;SDS011;31129;44.810;10.334;2023-11-21T00:11:11;80.20;;;55.13;;
45392;SDS011;31129;44.810;10.334;2023-11-21T00:13:36;75.93;;;53.80;;
45392;SDS011;31129;44.810;10.334;2023-11-21T00:16:02;70.85;;;51.05;;
45392;SDS011;31129;44.810;10.334;2023-11-21T00:18:32;73.93;;;52.95;;
45392;SDS011;31129;44.810;10.334;2023-11-21T00:20:58;77.05;;;53.83;;
45392;SDS011;31129;44.810;10.334;2023-11-21T00:23:24;77.65;;;52.88;;
45392;SDS011;31129;44.810;10.334;2023-11-21T00:25:49;74.88;;;52.83;;
45392;SDS011;31129;44.810;10.334;2023-11-21T00:28:15;77.00;;;52.88;;
45392;SDS011;31129;44.810;10.334;2023-11-21T00:30:40;74.78;;;52.88;;
45392;SDS011;31129;44.810;10.334;2023-11-21T00:33:06;76.90;;;53.45;;
45392;SDS011;31129;44.810;10.334;2023-11-21T01:08:44;82.15;;;53.08;;
45392;SDS011;31129;44.810;10.334;2023-11-21T01:11:10;80.45;;;53.22;;
45392;SDS011;31129;44.810;10.334;2023-11-21T01:13:37;76.05;;;54.17;;
45392;SDS011;31129;44.810;10.334;2023-11-21T01:16:04;75.30;;;53.95;;
45392;SDS011;31129;44.810;10.334;2023-11-21T01:18:31;77.10;;;54.53;;
45392;SDS011;31129;44.810;10.334;2023-11-21T01:20:57;77.30;;;53.45;;
45392;SDS011;31129;44.810;10.334;2023-11-21T01:23:22;77.35;;;55.38;;
45392;SDS011;31129;44.810;10.334;2023-11-21T01:25:48;81.38;;;53.72;;
45392;SDS011;31129;44.810;10.334;2023-11-21T01:28:14;77.05;;;51.92;;
45392;SDS011;31129;44.810;10.334;2023-11-21T01:30:39;81.97;;;53.67;;
45392;SDS011;31129;44.810;10.334;2023-11-21T01:35:33;72.68;;;50.00;;
45392;SDS011;31129;44.810;10.334;2023-11-21T01:37:59;82.57;;;54.92;;
45392;SDS011;31129;44.810;10.334;2023-11-21T01:40:24;76.78;;;52.40;;
45392;SDS011;31129;44.810;10.334;2023-11-21T01:42:50;73.18;;;53.10;;
45392;SDS011;31129;44.810;10.334;2023-11-21T01:45:15;80.68;;;52.83;;
45392;SDS011;31129;44.810;10.334;2023-11-21T01:47:41;77.45;;;53.80;;
45392;SDS011;31129;44.810;10.334;2023-11-21T01:50:07;82.63;;;55.08;;
45392;SDS011;31129;44.810;10.334;2023-11-21T01:52:39;77.15;;;54.35;;
45392;SDS011;31129;44.810;10.334;2023-11-21T01:55:06;79.15;;;52.58;;
45392;SDS011;31129;44.810;10.334;2023-11-21T01:57:36;75.50;;;51.90;;
45392;SDS011;31129;44.810;10.334;2023-11-21T02:00:05;78.15;;;50.67;;
45392;SDS011;31129;44.810;10.334;2023-11-21T02:02:43;70.00;;;51.85;;
45392;SDS011;31129;44.810;10.334;2023-11-21T02:05:10;70.65;;;51.53;;
45392;SDS011;31129;44.810;10.334;2023-11-21T02:07:38;76.57;;;53.97;;
45392;SDS011;31129;44.810;10.334;2023-11-21T02:10:05;72.97;;;51.45;;
45392;SDS011;31129;44.810;10.334;2023-11-21T02:12:32;75.15;;;50.67;;
45392;SDS011;31129;44.810;10.334;2023-11-21T02:14:57;77.15;;;49.70;;
45392;SDS011;31129;44.810;10.334;2023-11-21T02:17:22;76.82;;;51.65;;
45392;SDS011;31129;44.810;10.334;2023-11-21T02:19:48;70.18;;;47.72;;
45392;SDS011;31129;44.810;10.334;2023-11-21T02:22:17;74.18;;;50.25;;
45392;SDS011;31129;44.810;10.334;2023-11-21T02:24:45;70.05;;;48.40;;
45392;SDS011;31129;44.810;10.334;2023-11-21T02:27:12;70.57;;;51.00;;
45392;SDS011;31129;44.810;10.334;2023-11-21T02:29:38;74.18;;;50.20;;
45392;SDS011;31129;44.810;10.334;2023-11-21T02:32:04;71.18;;;49.72;;
45392;SDS011;31129;44.810;10.334;2023-11-21T02:34:30;74.50;;;49.45;;
45392;SDS011;31129;44.810;10.334;2023-11-21T02:36:56;72.47;;;49.13;;
45392;SDS011;31129;44.810;10.334;2023-11-21T02:39:22;70.45;;;49.70;;
45392;SDS011;31129;44.810;10.334;2023-11-21T02:41:48;70.88;;;48.30;;
45392;SDS011;31129;44.810;10.334;2023-11-21T02:44:14;68.82;;;47.22;;
45392;SDS011;31129;44.810;10.334;2023-11-21T02:46:40;70.40;;;47.53;;
45392;SDS011;31129;44.810;10.334;2023-11-21T02:49:05;69.38;;;48.65;;
45392;SDS011;31129;44.810;10.334;2023-11-21T02:51:31;72.85;;;48.33;;
45392;SDS011;31129;44.810;10.334;2023-11-21T02:53:58;69.20;;;46.25;;
45392;SDS011;31129;44.810;10.334;2023-11-21T02:56:27;68.05;;;46.83;;
45392;SDS011;31129;44.810;10.334;2023-11-21T02:58:55;67.65;;;47.33;;
45392;SDS011;31129;44.810;10.334;2023-11-21T03:01:20;67.75;;;47.30;;
45392;SDS011;31129;44.810;10.334;2023-11-21T03:03:46;75.38;;;47.30;;
45392;SDS011;31129;44.810;10.334;2023-11-21T03:06:16;73.55;;;48.58;;
45392;SDS011;31129;44.810;10.334;2023-11-21T03:08:45;66.53;;;46.25;;
45392;SDS011;31129;44.810;10.334;2023-11-21T03:11:11;72.38;;;47.38;;
45392;SDS011;31129;44.810;10.334;2023-11-21T03:13:40;63.83;;;45.88;;
45392;SDS011;31129;44.810;10.334;2023-11-21T03:16:09;68.35;;;46.72;;
45392;SDS011;31129;44.810;10.334;2023-11-21T03:18:39;67.82;;;48.00;;
45392;SDS011;31129;44.810;10.334;2023-11-21T03:23:34;71.80;;;46.95;;
45392;SDS011;31129;44.810;10.334;2023-11-21T03:26:02;66.43;;;46.20;;
45392;SDS011;31129;44.810;10.334;2023-11-21T03:28:29;73.82;;;47.85;;
45392;SDS011;31129;44.810;10.334;2023-11-21T03:30:55;68.85;;;48.03;;
45392;SDS011;31129;44.810;10.334;2023-11-21T03:33:21;70.70;;;48.30;;
45392;SDS011;31129;44.810;10.334;2023-11-21T03:35:47;71.95;;;47.28;;
45392;SDS011;31129;44.810;10.334;2023-11-21T03:38:13;68.97;;;47.42;;
45392;SDS011;31129;44.810;10.334;2023-11-21T03:40:38;67.57;;;46.85;;
45392;SDS011;31129;44.810;10.334;2023-11-21T03:43:05;70.53;;;48.97;;
45392;SDS011;31129;44.810;10.334;2023-11-21T03:45:31;69.38;;;48.30;;
45392;SDS011;31129;44.810;10.334;2023-11-21T03:47:57;70.82;;;47.85;;
45392;SDS011;31129;44.810;10.334;2023-11-21T03:50:22;70.63;;;47.63;;
45392;SDS011;31129;44.810;10.334;2023-11-21T03:52:48;73.60;;;49.15;;
45392;SDS011;31129;44.810;10.334;2023-11-21T03:55:13;73.28;;;50.72;;
45392;SDS011;31129;44.810;10.334;2023-11-21T03:57:41;77.00;;;50.25;;
45392;SDS011;31129;44.810;10.334;2023-11-21T04:00:07;70.07;;;49.92;;
45392;SDS011;31129;44.810;10.334;2023-11-21T04:02:37;80.68;;;53.55;;
45392;SDS011;31129;44.810;10.334;2023-11-21T04:05:02;78.25;;;52.47;;
45392;SDS011;31129;44.810;10.334;2023-11-21T04:07:28;74.68;;;52.65;;
45392;SDS011;31129;44.810;10.334;2023-11-21T04:09:53;73.07;;;50.03;;
45392;SDS011;31129;44.810;10.334;2023-11-21T04:12:19;83.45;;;53.00;;
45392;SDS011;31129;44.810;10.334;2023-11-21T04:14:45;77.95;;;52.22;;
45392;SDS011;31129;44.810;10.334;2023-11-21T04:19:38;78.40;;;52.67;;
45392;SDS011;31129;44.810;10.334;2023-11-21T04:22:04;77.00;;;52.50;;
45392;SDS011;31129;44.810;10.334;2023-11-21T04:24:29;78.30;;;52.63;;
45392;SDS011;31129;44.810;10.334;2023-11-21T04:26:55;75.32;;;51.65;;
45392;SDS011;31129;44.810;10.334;2023-11-21T04:29:20;83.72;;;54.92;;
45392;SDS011;31129;44.810;10.334;2023-11-21T04:31:46;79.55;;;53.17;;
45392;SDS011;31129;44.810;10.334;2023-11-21T04:34:14;78.32;;;54.72;;
45392;SDS011;31129;44.810;10.334;2023-11-21T04:36:39;82.50;;;54.28;;
45392;SDS011;31129;44.810;10.334;2023-11-21T04:39:05;77.70;;;53.20;;
45392;SDS011;31129;44.810;10.334;2023-11-21T04:41:31;81.38;;;55.35;;
45392;SDS011;31129;44.810;10.334;2023-11-21T04:43:57;78.10;;;53.70;;
45392;SDS011;31129;44.810;10.334;2023-11-21T04:46:23;82.57;;;54.55;;
45392;SDS011;31129;44.810;10.334;2023-11-21T04:48:49;82.70;;;54.80;;
45392;SDS011;31129;44.810;10.334;2023-11-21T04:51:14;81.93;;;55.80;;
45392;SDS011;31129;44.810;10.334;2023-11-21T04:53:40;75.38;;;52.10;;
45392;SDS011;31129;44.810;10.334;2023-11-21T04:56:05;79.55;;;54.08;;
45392;SDS011;31129;44.810;10.334;2023-11-21T04:58:31;72.72;;;49.90;;
45392;SDS011;31129;44.810;10.334;2023-11-21T05:00:58;74.18;;;48.95;;
45392;SDS011;31129;44.810;10.334;2023-11-21T05:03:23;78.18;;;48.33;;
45392;SDS011;31129;44.810;10.334;2023-11-21T05:05:48;69.65;;;47.38;;
45392;SDS011;31129;44.810;10.334;2023-11-21T05:08:33;74.93;;;46.80;;
45392;SDS011;31129;44.810;10.334;2023-11-21T05:10:58;72.03;;;47.10;;
45392;SDS011;31129;44.810;10.334;2023-11-21T05:13:24;67.35;;;46.03;;
45392;SDS011;31129;44.810;10.334;2023-11-21T05:15:53;75.28;;;48.10;;
45392;SDS011;31129;44.810;10.334;2023-11-21T05:18:22;69.70;;;47.70;;
45392;SDS011;31129;44.810;10.334;2023-11-21T05:20:47;71.93;;;47.00;;
45392;SDS011;31129;44.810;10.334;2023-11-21T05:23:13;73.55;;;49.78;;
45392;SDS011;31129;44.810;10.334;2023-11-21T05:25:38;84.68;;;50.38;;
45392;SDS011;31129;44.810;10.334;2023-11-21T05:28:04;73.63;;;52.28;;
45392;SDS011;31129;44.810;10.334;2023-11-21T05:30:29;78.00;;;52.30;;
45392;SDS011;31129;44.810;10.334;2023-11-21T05:32:55;74.05;;;51.08;;
45392;SDS011;31129;44.810;10.334;2023-11-21T05:35:20;83.35;;;55.33;;
45392;SDS011;31129;44.810;10.334;2023-11-21T05:37:46;79.03;;;53.75;;
45392;SDS011;31129;44.810;10.334;2023-11-21T05:40:12;81.00;;;55.83;;
45392;SDS011;31129;44.810;10.334;2023-11-21T05:42:38;78.63;;;56.78;;
45392;SDS011;31129;44.810;10.334;2023-11-21T05:45:04;83.47;;;55.78;;
45392;SDS011;31129;44.810;10.334;2023-11-21T05:47:36;84.43;;;56.15;;
45392;SDS011;31129;44.810;10.334;2023-11-21T05:50:02;83.35;;;54.97;;
45392;SDS011;31129;44.810;10.334;2023-11-21T05:52:30;79.82;;;55.45;;
45392;SDS011;31129;44.810;10.334;2023-11-21T05:54:57;79.60;;;53.88;;
45392;SDS011;31129;44.810;10.334;2023-11-21T05:57:23;81.35;;;57.50;;
45392;SDS011;31129;44.810;10.334;2023-11-21T05:59:48;85.60;;;57.35;;
45392;SDS011;31129;44.810;10.334;2023-11-21T06:02:14;84.15;;;57.33;;
45392;SDS011;31129;44.810;10.334;2023-11-21T06:04:39;84.95;;;59.08;;
45392;SDS011;31129;44.810;10.334;2023-11-21T06:07:05;82.78;;;55.65;;
45392;SDS011;31129;44.810;10.334;2023-11-21T06:09:30;86.10;;;58.35;;
45392;SDS011;31129;44.810;10.334;2023-11-21T06:11:56;81.90;;;57.10;;
45392;SDS011;31129;44.810;10.334;2023-11-21T06:14:21;83.60;;;58.22;;
45392;SDS011;31129;44.810;10.334;2023-11-21T06:16:47;85.50;;;57.47;;
45392;SDS011;31129;44.810;10.334;2023-11-21T06:19:12;83.47;;;57.47;;
45392;SDS011;31129;44.810;10.334;2023-11-21T06:21:37;83.13;;;57.03;;
45392;SDS011;31129;44.810;10.334;2023-11-21T06:24:03;92.00;;;58.50;;
45392;SDS011;31129;44.810;10.334;2023-11-21T06:26:29;84.07;;;56.40;;
45392;SDS011;31129;44.810;10.334;2023-11-21T06:28:56;89.70;;;58.33;;
45392;SDS011;31129;44.810;10.334;2023-11-21T06:31:22;88.53;;;57.47;;
45392;SDS011;31129;44.810;10.334;2023-11-21T06:33:48;85.68;;;57.38;;
45392;SDS011;31129;44.810;10.334;2023-11-21T06:36:13;87.43;;;59.08;;
45392;SDS011;31129;44.810;10.334;2023-11-21T06:38:39;88.93;;;59.20;;
45392;SDS011;31129;44.810;10.334;2023-11-21T06:41:04;85.07;;;59.60;;
45392;SDS011;31129;44.810;10.334;2023-11-21T06:43:30;83.72;;;57.00;;
45392;SDS011;31129;44.810;10.334;2023-11-21T06:45:58;87.90;;;58.72;;
45392;SDS011;31129;44.810;10.334;2023-11-21T06:48:23;84.75;;;58.45;;
45392;SDS011;31129;44.810;10.334;2023-11-21T06:50:49;87.93;;;58.17;;
45392;SDS011;31129;44.810;10.334;2023-11-21T06:53:14;84.43;;;58.35;;
45392;SDS011;31129;44.810;10.334;2023-11-21T06:55:40;86.15;;;58.15;;
45392;SDS011;31129;44.810;10.334;2023-11-21T06:58:05;89.60;;;58.00;;
45392;SDS011;31129;44.810;10.334;2023-11-21T07:00:30;87.50;;;56.92;;
45392;SDS011;31129;44.810;10.334;2023-11-21T07:02:56;83.80;;;58.47;;
45392;SDS011;31129;44.810;10.334;2023-11-21T07:05:21;83.68;;;56.38;;
45392;SDS011;31129;44.810;10.334;2023-11-21T07:07:48;80.03;;;56.55;;
45392;SDS011;31129;44.810;10.334;2023-11-21T07:10:14;82.45;;;56.53;;
45392;SDS011;31129;44.810;10.334;2023-11-21T07:12:40;87.90;;;57.83;;
45392;SDS011;31129;44.810;10.334;2023-11-21T07:15:06;88.40;;;56.55;;
45392;SDS011;31129;44.810;10.334;2023-11-21T07:17:35;83.72;;;54.95;;
45392;SDS011;31129;44.810;10.334;2023-11-21T07:20:01;83.55;;;55.30;;
45392;SDS011;31129;44.810;10.334;2023-11-21T07:22:27;80.47;;;54.97;;
45392;SDS011;31129;44.810;10.334;2023-11-21T07:24:53;77.30;;;53.58;;
45392;SDS011;31129;44.810;10.334;2023-11-21T07:27:18;74.65;;;51.63;;
45392;SDS011;31129;44.810;10.334;2023-11-21T07:29:44;80.45;;;53.47;;
45392;SDS011;31129;44.810;10.334;2023-11-21T07:32:10;75.40;;;53.75;;
45392;SDS011;31129;44.810;10.334;2023-11-21T07:34:36;78.97;;;51.13;;
45392;SDS011;31129;44.810;10.334;2023-11-21T07:37:04;78.65;;;51.85;;
45392;SDS011;31129;44.810;10.334;2023-11-21T07:39:29;81.10;;;54.47;;
45392;SDS011;31129;44.810;10.334;2023-11-21T07:41:55;86.72;;;56.60;;
45392;SDS011;31129;44.810;10.334;2023-11-21T07:44:21;84.70;;;57.97;;
45392;SDS011;31129;44.810;10.334;2023-11-21T07:46:46;85.07;;;56.42;;
45392;SDS011;31129;44.810;10.334;2023-11-21T07:49:12;91.53;;;59.85;;
45392;SDS011;31129;44.810;10.334;2023-11-21T07:51:42;80.65;;;56.50;;
45392;SDS011;31129;44.810;10.334;2023-11-21T07:54:09;83.13;;;54.75;;
45392;SDS011;31129;44.810;10.334;2023-11-21T07:56:35;87.05;;;57.83;;
45392;SDS011;31129;44.810;10.334;2023-11-21T07:59:00;84.40;;;57.50;;
45392;SDS011;31129;44.810;10.334;2023-11-21T08:01:26;86.65;;;57.95;;
45392;SDS011;31129;44.810;10.334;2023-11-21T08:03:53;78.25;;;55.05;;
45392;SDS011;31129;44.810;10.334;2023-11-21T08:06:22;82.88;;;56.00;;
45392;SDS011;31129;44.810;10.334;2023-11-21T08:08:51;76.97;;;53.55;;
45392;SDS011;31129;44.810;10.334;2023-11-21T08:11:16;74.60;;;53.70;;
45392;SDS011;31129;44.810;10.334;2023-11-21T08:13:42;76.53;;;52.22;;
45392;SDS011;31129;44.810;10.334;2023-11-21T08:16:07;74.47;;;52.28;;
45392;SDS011;31129;44.810;10.334;2023-11-21T08:18:33;93.00;;;52.95;;
45392;SDS011;31129;44.810;10.334;2023-11-21T08:20:59;80.50;;;54.25;;
45392;SDS011;31129;44.810;10.334;2023-11-21T08:23:25;75.43;;;52.83;;
45392;SDS011;31129;44.810;10.334;2023-11-21T08:25:51;73.93;;;54.58;;
45392;SDS011;31129;44.810;10.334;2023-11-21T08:28:17;76.15;;;53.90;;
45392;SDS011;31129;44.810;10.334;2023-11-21T08:30:43;78.63;;;55.03;;
45392;SDS011;31129;44.810;10.334;2023-11-21T08:33:12;81.88;;;55.03;;
45392;SDS011;31129;44.810;10.334;2023-11-21T08:35:38;79.90;;;56.03;;
45392;SDS011;31129;44.810;10.334;2023-11-21T08:38:03;81.82;;;55.17;;
45392;SDS011;31129;44.810;10.334;2023-11-21T08:40:29;82.53;;;57.00;;
45392;SDS011;31129;44.810;10.334;2023-11-21T08:42:55;79.47;;;55.58;;
45392;SDS011;31129;44.810;10.334;2023-11-21T08:45:21;85.97;;;56.30;;
45392;SDS011;31129;44.810;10.334;2023-11-21T08:47:47;84.72;;;56.65;;
45392;SDS011;31129;44.810;10.334;2023-11-21T08:50:13;87.95;;;57.85;;
45392;SDS011;31129;44.810;10.334;2023-11-21T08:52:40;76.93;;;55.10;;
45392;SDS011;31129;44.810;10.334;2023-11-21T08:55:06;84.35;;;56.30;;
45392;SDS011;31129;44.810;10.334;2023-11-21T08:57:37;82.85;;;56.28;;
45392;SDS011;31129;44.810;10.334;2023-11-21T09:00:04;79.10;;;54.50;;
45392;SDS011;31129;44.810;10.334;2023-11-21T09:02:36;84.05;;;58.42;;
45392;SDS011;31129;44.810;10.334;2023-11-21T09:05:02;82.15;;;54.72;;
45392;SDS011;31129;44.810;10.334;2023-11-21T09:07:29;87.30;;;60.40;;
45392;SDS011;31129;44.810;10.334;2023-11-21T09:09:55;83.25;;;58.58;;
45392;SDS011;31129;44.810;10.334;2023-11-21T09:12:20;87.05;;;61.92;;
45392;SDS011;31129;44.810;10.334;2023-11-21T09:14:46;88.20;;;61.58;;
45392;SDS011;31129;44.810;10.334;2023-11-21T09:17:12;96.97;;;62.83;;
45392;SDS011;31129;44.810;10.334;2023-11-21T09:19:38;90.35;;;62.63;;
45392;SDS011;31129;44.810;10.334;2023-11-21T09:22:04;91.85;;;61.85;;
45392;SDS011;31129;44.810;10.334;2023-11-21T09:24:30;95.22;;;64.50;;
45392;SDS011;31129;44.810;10.334;2023-11-21T09:26:56;92.15;;;63.65;;
45392;SDS011;31129;44.810;10.334;2023-11-21T09:29:22;98.85;;;66.00;;
45392;SDS011;31129;44.810;10.334;2023-11-21T09:31:47;101.93;;;68.07;;
45392;SDS011;31129;44.810;10.334;2023-11-21T09:34:13;102.93;;;68.15;;
45392;SDS011;31129;44.810;10.334;2023-11-21T09:36:40;93.50;;;66.95;;
45392;SDS011;31129;44.810;10.334;2023-11-21T09:39:06;100.70;;;65.32;;
45392;SDS011;31129;44.810;10.334;2023-11-21T09:41:37;89.03;;;63.55;;
45392;SDS011;31129;44.810;10.334;2023-11-21T09:44:09;94.75;;;64.53;;
45392;SDS011;31129;44.810;10.334;2023-11-21T09:46:39;91.07;;;64.03;;
45392;SDS011;31129;44.810;10.334;2023-11-21T09:49:07;86.45;;;62.78;;
45392;SDS011;31129;44.810;10.334;2023-11-21T09:51:39;96.13;;;63.97;;
45392;SDS011;31129;44.810;10.334;2023-11-21T09:54:07;89.20;;;64.00;;
45392;SDS011;31129;44.810;10.334;2023-11-21T09:56:35;89.45;;;63.65;;
45392;SDS011;31129;44.810;10.334;2023-11-21T09:59:05;99.22;;;65.55;;
45392;SDS011;31129;44.810;10.334;2023-11-21T10:01:34;97.88;;;64.82;;
45392;SDS011;31129;44.810;10.334;2023-11-21T10:04:01;90.63;;;61.58;;
45392;SDS011;31129;44.810;10.334;2023-11-21T10:06:27;96.07;;;62.05;;
45392;SDS011;31129;44.810;10.334;2023-11-21T10:08:55;87.15;;;61.78;;
45392;SDS011;31129;44.810;10.334;2023-11-21T10:11:22;87.47;;;61.13;;
45392;SDS011;31129;44.810;10.334;2023-11-21T10:13:50;90.50;;;61.38;;
45392;SDS011;31129;44.810;10.334;2023-11-21T10:16:19;91.38;;;63.03;;
45392;SDS011;31129;44.810;10.334;2023-11-21T10:18:52;98.30;;;63.88;;
45392;SDS011;31129;44.810;10.334;2023-11-21T10:21:20;92.55;;;63.05;;
45392;SDS011;31129;44.810;10.334;2023-11-21T10:23:46;89.43;;;62.20;;
45392;SDS011;31129;44.810;10.334;2023-11-21T10:26:12;97.32;;;64.53;;
45392;SDS011;31129;44.810;10.334;2023-11-21T10:28:54;91.38;;;62.17;;
45392;SDS011;31129;44.810;10.334;2023-11-21T10:31:29;94.82;;;61.80;;
45392;SDS011;31129;44.810;10.334;2023-11-21T10:34:14;89.70;;;63.08;;
45392;SDS011;31129;44.810;10.334;2023-11-21T10:36:40;98.85;;;65.57;;
45392;SDS011;31129;44.810;10.334;2023-11-21T10:39:06;96.28;;;64.45;;
45392;SDS011;31129;44.810;10.334;2023-11-21T10:41:32;92.65;;;64.95;;
45392;SDS011;31129;44.810;10.334;2023-11-21T10:43:57;102.82;;;66.30;;
45392;SDS011;31129;44.810;10.334;2023-11-21T10:46:23;94.68;;;62.25;;
45392;SDS011;31129;44.810;10.334;2023-11-21T10:48:53;92.72;;;64.80;;
45392;SDS011;31129;44.810;10.334;2023-11-21T10:51:22;96.22;;;64.55;;
45392;SDS011;31129;44.810;10.334;2023-11-21T10:53:49;99.15;;;66.57;;
45392;SDS011;31129;44.810;10.334;2023-11-21T10:56:16;91.03;;;65.00;;
45392;SDS011;31129;44.810;10.334;2023-11-21T10:58:44;93.45;;;65.53;;
45392;SDS011;31129;44.810;10.334;2023-11-21T11:01:10;95.40;;;64.22;;
45392;SDS011;31129;44.810;10.334;2023-11-21T11:03:39;93.25;;;65.18;;
45392;SDS011;31129;44.810;10.334;2023-11-21T11:06:07;96.35;;;63.85;;
45392;SDS011;31129;44.810;10.334;2023-11-21T11:08:37;87.90;;;63.35;;
45392;SDS011;31129;44.810;10.334;2023-11-21T11:11:04;103.20;;;66.95;;
45392;SDS011;31129;44.810;10.334;2023-11-21T11:13:30;98.67;;;68.03;;
45392;SDS011;31129;44.810;10.334;2023-11-21T11:16:00;101.00;;;66.03;;
45392;SDS011;31129;44.810;10.334;2023-11-21T11:18:32;92.50;;;63.53;;
45392;SDS011;31129;44.810;10.334;2023-11-21T11:21:11;95.45;;;63.90;;
45392;SDS011;31129;44.810;10.334;2023-11-21T11:27:06;92.90;;;63.92;;
45392;SDS011;31129;44.810;10.334;2023-11-21T11:29:44;96.45;;;64.97;;
45392;SDS011;31129;44.810;10.334;2023-11-21T11:35:27;97.82;;;63.25;;
45392;SDS011;31129;44.810;10.334;2023-11-21T11:40:41;96.75;;;63.33;;
45392;SDS011;31129;44.810;10.334;2023-11-21T11:43:09;98.35;;;64.47;;
45392;SDS011;31129;44.810;10.334;2023-11-21T11:45:35;92.70;;;60.67;;
45392;SDS011;31129;44.810;10.334;2023-11-21T11:48:01;88.50;;;62.95;;
45392;SDS011;31129;44.810;10.334;2023-11-21T11:50:28;96.72;;;62.50;;
45392;SDS011;31129;44.810;10.334;2023-11-21T11:52:57;87.63;;;63.22;;
45392;SDS011;31129;44.810;10.334;2023-11-21T11:55:37;91.10;;;61.17;;
45392;SDS011;31129;44.810;10.334;2023-11-21T11:58:04;93.03;;;63.33;;
45392;SDS011;31129;44.810;10.334;2023-11-21T12:00:36;91.32;;;64.53;;
45392;SDS011;31129;44.810;10.334;2023-11-21T12:03:05;90.55;;;62.58;;
45392;SDS011;31129;44.810;10.334;2023-11-21T12:05:33;96.45;;;63.95;;
45392;SDS011;31129;44.810;10.334;2023-11-21T12:08:06;93.03;;;61.58;;
45392;SDS011;31129;44.810;10.334;2023-11-21T12:10:34;89.72;;;60.67;;
45392;SDS011;31129;44.810;10.334;2023-11-21T12:15:27;87.38;;;59.78;;
45392;SDS011;31129;44.810;10.334;2023-11-21T12:17:56;93.63;;;60.78;;
45392;SDS011;31129;44.810;10.334;2023-11-21T12:20:23;90.30;;;58.92;;
45392;SDS011;31129;44.810;10.334;2023-11-21T12:22:53;89.18;;;57.60;;
45392;SDS011;31129;44.810;10.334;2023-11-21T12:25:24;84.88;;;56.50;;
45392;SDS011;31129;44.810;10.334;2023-11-21T12:27:54;85.82;;;58.10;;
45392;SDS011;31129;44.810;10.334;2023-11-21T12:30:22;83.40;;;54.70;;
45392;SDS011;31129;44.810;10.334;2023-11-21T12:32:49;85.57;;;57.70;;
45392;SDS011;31129;44.810;10.334;2023-11-21T12:35:16;79.20;;;54.35;;
45392;SDS011;31129;44.810;10.334;2023-11-21T12:37:44;77.82;;;52.42;;
45392;SDS011;31129;44.810;10.334;2023-11-21T12:40:12;78.43;;;51.80;;
45392;SDS011;31129;44.810;10.334;2023-11-21T12:42:43;78.55;;;51.85;;
45392;SDS011;31129;44.810;10.334;2023-11-21T12:47:43;85.28;;;51.22;;
45392;SDS011;31129;44.810;10.334;2023-11-21T12:50:10;80.55;;;51.80;;
45392;SDS011;31129;44.810;10.334;2023-11-21T12:52:42;80.63;;;53.10;;
45392;SDS011;31129;44.810;10.334;2023-11-21T12:55:21;75.40;;;52.75;;
45392;SDS011;31129;44.810;10.334;2023-11-21T12:57:48;80.95;;;50.83;;
45392;SDS011;31129;44.810;10.334;2023-11-21T13:00:17;72.90;;;50.55;;
45392;SDS011;31129;44.810;10.334;2023-11-21T13:02:53;73.45;;;48.33;;
45392;SDS011;31129;44.810;10.334;2023-11-21T13:05:28;70.50;;;48.55;;
45392;SDS011;31129;44.810;10.334;2023-11-21T13:07:56;79.28;;;50.30;;
45392;SDS011;31129;44.810;10.334;2023-11-21T13:10:24;75.43;;;51.40;;
45392;SDS011;31129;44.810;10.334;2023-11-21T13:12:52;79.60;;;54.05;;
45392;SDS011;31129;44.810;10.334;2023-11-21T13:15:18;79.47;;;54.60;;
45392;SDS011;31129;44.810;10.334;2023-11-21T13:17:43;78.00;;;55.47;;
45392;SDS011;31129;44.810;10.334;2023-11-21T13:20:10;81.30;;;56.38;;
45392;SDS011;31129;44.810;10.334;2023-11-21T13:22:45;85.40;;;54.85;;
45392;SDS011;31129;44.810;10.334;2023-11-21T13:25:12;81.07;;;56.42;;
45392;SDS011;31129;44.810;10.334;2023-11-21T13:27:39;83.70;;;56.90;;
45392;SDS011;31129;44.810;10.334;2023-11-21T13:30:05;89.53;;;57.90;;
45392;SDS011;31129;44.810;10.334;2023-11-21T13:32:34;83.70;;;57.08;;
45392;SDS011;31129;44.810;10.334;2023-11-21T13:34:59;82.72;;;59.20;;
45392;SDS011;31129;44.810;10.334;2023-11-21T13:37:25;84.65;;;58.50;;
45392;SDS011;31129;44.810;10.334;2023-11-21T13:42:19;82.60;;;57.25;;
45392;SDS011;31129;44.810;10.334;2023-11-21T13:44:55;82.05;;;55.90;;
45392;SDS011;31129;44.810;10.334;2023-11-21T13:47:21;88.15;;;59.75;;
45392;SDS011;31129;44.810;10.334;2023-11-21T13:49:50;77.28;;;54.78;;
45392;SDS011;31129;44.810;10.334;2023-11-21T13:52:16;82.60;;;57.33;;
45392;SDS011;31129;44.810;10.334;2023-11-21T13:54:42;82.97;;;56.28;;
45392;SDS011;31129;44.810;10.334;2023-11-21T13:57:08;86.13;;;56.38;;
45392;SDS011;31129;44.810;10.334;2023-11-21T13:59:34;80.28;;;55.58;;
45392;SDS011;31129;44.810;10.334;2023-11-21T14:02:01;80.60;;;54.95;;
45392;SDS011;31129;44.810;10.334;2023-11-21T14:04:42;77.22;;;55.38;;
45392;SDS011;31129;44.810;10.334;2023-11-21T14:07:22;86.85;;;55.67;;
45392;SDS011;31129;44.810;10.334;2023-11-21T14:09:57;81.43;;;55.60;;
45392;SDS011;31129;44.810;10.334;2023-11-21T14:12:23;78.82;;;56.88;;
45392;SDS011;31129;44.810;10.334;2023-11-21T14:14:49;83.05;;;57.38;;
45392;SDS011;31129;44.810;10.334;2023-11-21T14:17:14;81.28;;;56.58;;
45392;SDS011;31129;44.810;10.334;2023-11-21T14:19:40;82.57;;;56.20;;
45392;SDS011;31129;44.810;10.334;2023-11-21T14:22:09;90.43;;;55.05;;
45392;SDS011;31129;44.810;10.334;2023-11-21T14:24:35;81.63;;;57.20;;
45392;SDS011;31129;44.810;10.334;2023-11-21T14:27:01;83.28;;;56.70;;
45392;SDS011;31129;44.810;10.334;2023-11-21T14:29:28;87.78;;;56.58;;
45392;SDS011;31129;44.810;10.334;2023-11-21T14:31:55;83.68;;;58.92;;
45392;SDS011;31129;44.810;10.334;2023-11-21T14:34:22;82.68;;;55.83;;
45392;SDS011;31129;44.810;10.334;2023-11-21T14:36:51;81.38;;;57.38;;
45392;SDS011;31129;44.810;10.334;2023-11-21T14:39:17;82.28;;;57.42;;
45392;SDS011;31129;44.810;10.334;2023-11-21T14:41:51;83.07;;;56.50;;
45392;SDS011;31129;44.810;10.334;2023-11-21T14:44:18;81.50;;;57.75;;
45392;SDS011;31129;44.810;10.334;2023-11-21T14:46:43;84.65;;;58.17;;
45392;SDS011;31129;44.810;10.334;2023-11-21T14:49:11;85.53;;;59.15;;
45392;SDS011;31129;44.810;10.334;2023-11-21T14:51:48;81.57;;;56.58;;
45392;SDS011;31129;44.810;10.334;2023-11-21T14:54:26;83.32;;;56.90;;
45392;SDS011;31129;44.810;10.334;2023-11-21T14:57:12;82.47;;;56.75;;
45392;SDS011;31129;44.810;10.334;2023-11-21T14:59:47;89.13;;;58.50;;
45392;SDS011;31129;44.810;10.334;2023-11-21T15:02:16;86.40;;;58.75;;
45392;SDS011;31129;44.810;10.334;2023-11-21T15:04:47;85.05;;;59.72;;
45392;SDS011;31129;44.810;10.334;2023-11-21T15:07:13;81.57;;;59.75;;
45392;SDS011;31129;44.810;10.334;2023-11-21T15:09:38;87.55;;;60.10;;